createdAt,value
2022-11-26T00:02:25.456Z,101554.15
2022-11-26T00:04:54.444Z,101554.02
2022-11-26T00:07:26.718Z,101557.27
2022-11-26T00:09:57.875Z,101556.19
2022-11-26T00:12:30.857Z,101560.02
2022-11-26T00:14:59.210Z,101558.59
2022-11-26T00:17:25.666Z,101557.11
2022-11-26T00:19:52.245Z,101558.46
2022-11-26T00:22:28.247Z,101560.09
2022-11-26T00:24:55.428Z,101561.97
2022-11-26T00:27:25.027Z,101565.48
2022-11-26T00:29:51.891Z,101570.42
2022-11-26T00:32:21.691Z,101571.88
2022-11-26T00:34:48.056Z,101574.27
2022-11-26T00:37:27.584Z,101576.27
2022-11-26T00:39:55.677Z,101576.39
2022-11-26T00:42:22.058Z,101573.56
2022-11-26T00:44:48.392Z,101572.07
2022-11-26T00:47:14.855Z,101573.55
2022-11-26T00:49:41.296Z,101573.34
2022-11-26T00:52:33.359Z,101572.02
2022-11-26T00:55:06.314Z,101576.69
2022-11-26T00:57:32.889Z,101574.81
2022-11-26T00:59:59.327Z,101573.84
2022-11-26T01:02:25.796Z,101575.19
2022-11-26T01:04:52.184Z,101578.09
2022-11-26T01:07:19.265Z,101574.20
2022-11-26T01:09:47.686Z,101575.29
2022-11-26T01:12:14.813Z,101580.30
2022-11-26T01:14:41.298Z,101582.17
2022-11-26T01:17:11.168Z,101585.70
2022-11-26T01:19:37.498Z,101590.71
2022-11-26T01:22:03.834Z,101591.13
2022-11-26T01:24:30.182Z,101591.21
2022-11-26T01:26:56.642Z,101594.17
2022-11-26T01:29:22.934Z,101595.08
2022-11-26T01:31:49.307Z,101593.20
2022-11-26T01:34:15.744Z,101600.67
2022-11-26T01:36:42.420Z,101602.45
2022-11-26T01:39:20.536Z,101604.25
2022-11-26T01:42:06.542Z,101601.67
2022-11-26T01:44:35.889Z,101602.42
2022-11-26T01:47:20.143Z,101600.11
2022-11-26T01:50:24.245Z,101598.27
2022-11-26T01:52:50.688Z,101599.36
2022-11-26T01:55:17.708Z,101604.16
2022-11-26T01:57:44.179Z,101605.98
2022-11-26T02:00:11.268Z,101604.80
2022-11-26T02:02:38.773Z,101601.46
2022-11-26T02:05:11.308Z,101601.84
2022-11-26T02:07:38.283Z,101603.55
2022-11-26T02:10:05.237Z,101603.14
2022-11-26T02:12:31.998Z,101604.63
2022-11-26T02:14:58.407Z,101608.52
2022-11-26T02:17:35.918Z,101607.69
2022-11-26T02:20:40.664Z,101611.29
2022-11-26T02:23:41.157Z,101609.79
2022-11-26T02:26:16.536Z,101608.27
2022-11-26T02:28:48.841Z,101605.06
2022-11-26T02:31:44.308Z,101601.66
2022-11-26T02:34:16.686Z,101603.81
2022-11-26T02:37:21.067Z,101604.40
2022-11-26T02:39:47.461Z,101608.37
2022-11-26T02:42:26.453Z,101609.17
2022-11-26T02:44:56.168Z,101606.40
2022-11-26T02:47:25.495Z,101610.46
2022-11-26T02:49:54.022Z,101615.65
2022-11-26T02:52:21.532Z,101620.39
2022-11-26T02:54:49.903Z,101622.21
2022-11-26T02:57:20.622Z,101624.60
2022-11-26T02:59:47.183Z,101626.61
2022-11-26T03:02:25.266Z,101629.38
2022-11-26T03:04:56.136Z,101627.05
2022-11-26T03:07:23.493Z,101634.45
2022-11-26T03:09:59.309Z,101637.93
2022-11-26T03:12:26.866Z,101636.61
2022-11-26T03:14:53.438Z,101639.41
2022-11-26T03:17:20.266Z,101639.20
2022-11-26T03:19:46.667Z,101641.23
2022-11-26T03:22:14.645Z,101640.33
2022-11-26T03:24:41.119Z,101640.52
2022-11-26T03:27:07.719Z,101643.28
2022-11-26T03:29:34.120Z,101652.73
2022-11-26T03:32:00.575Z,101652.79
2022-11-26T03:34:27.018Z,101658.34
2022-11-26T03:36:53.412Z,101661.40
2022-11-26T03:39:19.795Z,101665.39
2022-11-26T03:41:46.111Z,101670.70
2022-11-26T03:44:13.016Z,101672.37
2022-11-26T03:46:39.869Z,101671.58
2022-11-26T03:49:06.440Z,101675.80
2022-11-26T03:51:32.820Z,101674.07
2022-11-26T03:53:59.126Z,101679.06
2022-11-26T03:56:25.537Z,101684.49
2022-11-26T03:58:52.004Z,101685.61
2022-11-26T04:01:18.381Z,101682.72
2022-11-26T04:03:44.932Z,101686.91
2022-11-26T04:06:12.084Z,101688.45
2022-11-26T04:08:38.443Z,101689.88
2022-11-26T04:11:04.984Z,101690.42
2022-11-26T04:13:31.343Z,101692.19
2022-11-26T04:15:57.650Z,101690.59
2022-11-26T04:18:23.925Z,101690.79
2022-11-26T04:20:53.267Z,101691.62
2022-11-26T04:23:20.265Z,101695.44
2022-11-26T04:25:46.846Z,101699.41
2022-11-26T04:28:14.459Z,101704.66
2022-11-26T04:30:41.697Z,101711.10
2022-11-26T04:33:08.209Z,101711.91
2022-11-26T04:35:34.975Z,101712.20
2022-11-26T04:38:01.416Z,101717.08
2022-11-26T04:40:27.787Z,101717.65
2022-11-26T04:42:54.193Z,101714.42
2022-11-26T04:45:20.578Z,101717.06
2022-11-26T04:47:46.912Z,101721.43
2022-11-26T04:50:15.445Z,101724.77
2022-11-26T04:52:42.093Z,101724.61
2022-11-26T04:55:09.179Z,101729.52
2022-11-26T04:57:35.568Z,101731.64
2022-11-26T05:00:02.042Z,101735.38
2022-11-26T05:02:28.571Z,101738.60
2022-11-26T05:04:55.149Z,101737.63
2022-11-26T05:07:21.581Z,101745.72
2022-11-26T05:09:48.187Z,101744.77
2022-11-26T05:12:14.590Z,101745.88
2022-11-26T05:14:41.112Z,101750.52
2022-11-26T05:17:07.529Z,101757.24
2022-11-26T05:19:33.834Z,101762.15
2022-11-26T05:22:00.160Z,101768.73
2022-11-26T05:24:26.625Z,101772.02
2022-11-26T05:26:56.951Z,101777.26
2022-11-26T05:29:23.967Z,101775.83
2022-11-26T05:31:50.558Z,101777.55
2022-11-26T05:34:17.085Z,101784.14
2022-11-26T05:36:43.928Z,101788.13
2022-11-26T05:39:11.188Z,101788.83
2022-11-26T05:41:38.724Z,101785.44
2022-11-26T05:44:09.206Z,101787.68
2022-11-26T05:46:42.396Z,101786.50
2022-11-26T05:49:10.019Z,101790.75
2022-11-26T05:51:36.370Z,101796.63
2022-11-26T05:54:02.924Z,101797.73
2022-11-26T05:56:29.335Z,101801.41
2022-11-26T05:58:55.970Z,101800.48
2022-11-26T06:01:22.398Z,101800.53
2022-11-26T06:03:48.931Z,101802.11
2022-11-26T06:06:18.782Z,101803.35
2022-11-26T06:08:45.278Z,101808.61
2022-11-26T06:11:12.931Z,101812.85
2022-11-26T06:13:39.504Z,101818.86
2022-11-26T06:16:06.337Z,101815.22
2022-11-26T06:18:33.048Z,101817.56
2022-11-26T06:21:00.856Z,101820.21
2022-11-26T06:23:27.809Z,101829.13
2022-11-26T06:25:54.395Z,101833.56
2022-11-26T06:28:21.655Z,101839.23
2022-11-26T06:30:48.029Z,101834.61
2022-11-26T06:33:14.654Z,101840.75
2022-11-26T06:35:41.996Z,101843.59
2022-11-26T06:38:08.676Z,101847.02
2022-11-26T06:40:35.236Z,101849.52
2022-11-26T06:43:01.907Z,101857.41
2022-11-26T06:45:28.364Z,101862.77
2022-11-26T06:47:54.783Z,101872.10
2022-11-26T06:50:22.877Z,101870.92
2022-11-26T06:52:53.108Z,101875.04
2022-11-26T06:55:20.112Z,101883.55
2022-11-26T06:57:51.034Z,101886.02
2022-11-26T07:00:18.610Z,101890.83
2022-11-26T07:02:47.624Z,101894.65
2022-11-26T07:05:14.610Z,101893.13
2022-11-26T07:07:41.919Z,101899.19
2022-11-26T07:10:09.254Z,101903.95
2022-11-26T07:12:35.799Z,101910.63
2022-11-26T07:15:02.565Z,101916.25
2022-11-26T07:17:29.000Z,101923.88
2022-11-26T07:19:55.774Z,101920.67
2022-11-26T07:22:22.390Z,101927.96
2022-11-26T07:24:49.164Z,101931.87
2022-11-26T07:27:16.095Z,101935.04
2022-11-26T07:29:44.608Z,101940.48
2022-11-26T07:32:11.904Z,101941.73
2022-11-26T07:34:42.487Z,101951.24
2022-11-26T07:37:09.612Z,101949.64
2022-11-26T07:39:36.118Z,101955.82
2022-11-26T07:42:02.644Z,101958.43
2022-11-26T07:44:29.009Z,101960.98
2022-11-26T07:46:55.666Z,101964.58
2022-11-26T07:49:22.307Z,101966.98
2022-11-26T07:51:48.782Z,101969.11
2022-11-26T07:54:15.185Z,101969.20
2022-11-26T07:56:43.015Z,101972.27
2022-11-26T07:59:10.604Z,101975.91
2022-11-26T08:01:37.819Z,101979.12
2022-11-26T08:04:06.019Z,101980.22
2022-11-26T08:06:32.833Z,101982.02
2022-11-26T08:09:01.949Z,101981.17
2022-11-26T08:11:31.392Z,101981.00
2022-11-26T08:14:04.288Z,101985.02
2022-11-26T08:16:31.866Z,101983.98
2022-11-26T08:19:01.659Z,101984.84
2022-11-26T08:21:29.255Z,101984.39
2022-11-26T08:23:57.491Z,101986.23
2022-11-26T08:26:34.648Z,101993.16
2022-11-26T08:29:02.616Z,101994.60
2022-11-26T08:31:30.520Z,102000.45
2022-11-26T08:33:59.705Z,102002.79
2022-11-26T08:36:28.110Z,102004.60
2022-11-26T08:38:57.308Z,102003.75
2022-11-26T08:41:24.068Z,102001.76
2022-11-26T08:44:06.127Z,102000.40
2022-11-26T08:46:39.086Z,102005.84
2022-11-26T08:49:07.727Z,102003.80
2022-11-26T08:51:34.564Z,102007.95
2022-11-26T08:54:01.521Z,102015.45
2022-11-26T08:56:28.097Z,102022.11
2022-11-26T08:58:55.705Z,102021.13
2022-11-26T09:01:29.396Z,102019.27
2022-11-26T09:04:02.672Z,102023.20
2022-11-26T09:06:32.779Z,102028.59
2022-11-26T09:09:13.868Z,102027.63
2022-11-26T09:11:43.927Z,102025.67
2022-11-26T09:14:12.343Z,102027.48
2022-11-26T09:16:39.893Z,102027.88
2022-11-26T09:19:07.418Z,102027.48
2022-11-26T09:21:35.592Z,102032.42
2022-11-26T09:24:03.827Z,102030.63
2022-11-26T09:26:32.047Z,102037.17
2022-11-26T09:29:02.047Z,102041.33
2022-11-26T09:31:29.858Z,102040.73
2022-11-26T09:34:00.791Z,102038.64
2022-11-26T09:36:30.869Z,102035.85
2022-11-26T09:38:59.130Z,102042.59
2022-11-26T09:41:52.370Z,102048.91
2022-11-26T09:44:29.121Z,102058.58
2022-11-26T09:47:12.887Z,102060.13
2022-11-26T09:49:43.921Z,102061.49
2022-11-26T09:52:15.872Z,102058.13
2022-11-26T09:54:45.119Z,102059.66
2022-11-26T09:57:35.192Z,102062.31
2022-11-26T10:00:22.331Z,102063.33
2022-11-26T10:02:52.089Z,102064.33
2022-11-26T10:05:21.558Z,102067.69
2022-11-26T10:08:15.427Z,102066.27
2022-11-26T10:11:09.309Z,102073.40
2022-11-26T10:13:41.948Z,102070.75
2022-11-26T10:16:37.208Z,102071.73
2022-11-26T10:19:24.090Z,102072.05
2022-11-26T10:21:59.620Z,102072.73
2022-11-26T10:24:41.469Z,102076.98
2022-11-26T10:27:26.568Z,102073.87
2022-11-26T10:30:09.052Z,102080.73
2022-11-26T10:32:41.770Z,102080.81
2022-11-26T10:35:16.104Z,102079.16
2022-11-26T10:37:43.360Z,102082.83
2022-11-26T10:40:28.958Z,102091.44
2022-11-26T10:43:07.954Z,102092.50
2022-11-26T10:45:38.738Z,102096.17
2022-11-26T10:48:22.116Z,102099.06
2022-11-26T10:51:12.653Z,102094.16
2022-11-26T10:53:48.180Z,102093.22
2022-11-26T10:56:18.944Z,102089.79
2022-11-26T10:58:50.074Z,102090.66
2022-11-26T11:01:17.008Z,102094.60
2022-11-26T11:06:42.133Z,102094.92
2022-11-26T11:09:29.957Z,102096.83
2022-11-26T11:12:18.588Z,102102.13
2022-11-26T11:14:46.353Z,102104.88
2022-11-26T11:17:32.209Z,102107.84
2022-11-26T11:20:23.485Z,102107.95
2022-11-26T11:23:34.730Z,102110.90
2022-11-26T11:26:16.851Z,102113.96
2022-11-26T11:28:48.493Z,102113.17
2022-11-26T11:31:24.156Z,102119.88
2022-11-26T11:34:12.362Z,102121.44
2022-11-26T11:36:39.340Z,102124.23
2022-11-26T11:39:30.716Z,102123.55
2022-11-26T11:42:00.420Z,102121.67
2022-11-26T11:44:34.923Z,102122.38
2022-11-26T11:47:07.406Z,102124.73
2022-11-26T11:49:35.407Z,102126.77
2022-11-26T11:52:25.954Z,102130.77
2022-11-26T11:55:26.728Z,102133.48
2022-11-26T11:58:05.685Z,102137.30
2022-11-26T12:01:17.699Z,102138.92
2022-11-26T12:03:53.835Z,102142.97
2022-11-26T12:06:42.170Z,102147.70
2022-11-26T12:09:37.239Z,102140.71
2022-11-26T12:12:16.579Z,102136.61
2022-11-26T12:14:50.586Z,102138.69
2022-11-26T12:17:31.851Z,102136.13
2022-11-26T12:20:27.067Z,102137.80
2022-11-26T12:23:08.063Z,102137.81
2022-11-26T12:25:39.978Z,102135.52
2022-11-26T12:28:15.540Z,102137.34
2022-11-26T12:30:45.227Z,102134.32
2022-11-26T12:33:20.224Z,102137.11
2022-11-26T12:35:58.670Z,102137.49
2022-11-26T12:38:58.668Z,102138.10
2022-11-26T12:41:55.894Z,102137.69
2022-11-26T12:44:36.312Z,102144.81
2022-11-26T12:47:20.081Z,102142.27
2022-11-26T12:50:17.263Z,102142.75
2022-11-26T12:53:12.361Z,102148.92
2022-11-26T12:55:49.765Z,102148.15
2022-11-26T12:58:29.166Z,102147.59
2022-11-26T13:00:56.353Z,102151.65
2022-11-26T13:03:28.665Z,102150.79
2022-11-26T13:06:29.135Z,102153.53
2022-11-26T13:09:32.647Z,102159.21
2022-11-26T13:12:08.229Z,102159.50
2022-11-26T13:14:58.373Z,102166.39
2022-11-26T13:17:51.510Z,102162.02
2022-11-26T13:20:36.905Z,102166.33
2022-11-26T13:23:23.437Z,102169.88
2022-11-26T13:25:58.381Z,102171.45
2022-11-26T13:28:51.723Z,102175.48
2022-11-26T13:31:37.543Z,102174.52
2022-11-26T13:34:25.271Z,102173.19
2022-11-26T13:37:20.506Z,102174.15
2022-11-26T13:40:17.997Z,102182.17
2022-11-26T13:43:04.636Z,102183.19
2022-11-26T13:46:06.124Z,102185.88
2022-11-26T13:48:42.508Z,102183.34
2022-11-26T13:51:45.665Z,102187.37
2022-11-26T13:54:18.809Z,102186.95
2022-11-26T13:56:48.510Z,102193.73
2022-11-26T13:59:28.108Z,102193.73
2022-11-26T14:01:56.489Z,102195.50
2022-11-26T14:04:23.567Z,102200.04
2022-11-26T14:07:05.950Z,102196.73
2022-11-26T14:09:41.823Z,102194.58
2022-11-26T14:12:12.637Z,102196.92
2022-11-26T14:14:41.468Z,102194.49
2022-11-26T14:17:08.403Z,102202.25
2022-11-26T14:19:40.891Z,102202.52
2022-11-26T14:22:26.573Z,102210.08
2022-11-26T14:24:58.589Z,102214.84
2022-11-26T14:27:34.850Z,102216.74
2022-11-26T14:30:07.693Z,102213.91
2022-11-26T14:32:45.395Z,102216.30
2022-11-26T14:35:30.715Z,102218.77
2022-11-26T14:38:02.741Z,102222.31
2022-11-26T14:40:35.153Z,102222.45
2022-11-26T14:43:19.629Z,102225.77
2022-11-26T14:45:58.080Z,102227.83
2022-11-26T14:48:27.128Z,102229.48
2022-11-26T14:50:56.376Z,102229.44
2022-11-26T14:53:26.349Z,102234.04
2022-11-26T14:55:54.561Z,102235.25
2022-11-26T14:58:42.267Z,102236.90
2022-11-26T15:01:16.043Z,102238.08
2022-11-26T15:03:54.081Z,102238.55
2022-11-26T15:06:36.234Z,102239.77
2022-11-26T15:09:14.788Z,102243.77
2022-11-26T15:11:49.499Z,102246.48
2022-11-26T15:14:50.233Z,102250.95
2022-11-26T15:17:20.579Z,102251.91
2022-11-26T15:19:51.422Z,102250.05
2022-11-26T15:22:22.429Z,102248.31
2022-11-26T15:24:53.829Z,102250.11
2022-11-26T15:27:29.027Z,102250.66
2022-11-26T15:29:56.337Z,102250.23
2022-11-26T15:32:26.728Z,102250.81
2022-11-26T15:35:02.653Z,102254.63
2022-11-26T15:37:30.123Z,102256.48
2022-11-26T15:40:49.762Z,102257.92
2022-11-26T15:43:30.502Z,102257.39
2022-11-26T15:46:04.153Z,102254.44
2022-11-26T15:48:51.446Z,102252.89
2022-11-26T15:51:36.975Z,102255.77
2022-11-26T15:54:18.914Z,102254.00
2022-11-26T15:56:52.942Z,102259.35
2022-11-26T15:59:22.894Z,102258.13
2022-11-26T16:01:50.192Z,102258.08
2022-11-26T16:04:33.306Z,102266.04
2022-11-26T16:07:22.164Z,102265.94
2022-11-26T16:09:51.595Z,102263.80
2022-11-26T16:12:35.171Z,102263.23
2022-11-26T16:15:10.201Z,102266.20
2022-11-26T16:17:41.308Z,102270.54
2022-11-26T16:20:18.704Z,102269.52
2022-11-26T16:22:50.204Z,102271.10
2022-11-26T16:25:29.858Z,102272.08
2022-11-26T16:28:09.180Z,102271.52
2022-11-26T16:30:42.327Z,102273.20
2022-11-26T16:33:19.898Z,102276.30
2022-11-26T16:35:50.036Z,102276.02
2022-11-26T16:38:24.089Z,102285.41
2022-11-26T16:40:53.323Z,102283.67
2022-11-26T16:43:23.273Z,102285.77
2022-11-26T16:45:55.251Z,102287.17
2022-11-26T16:48:27.292Z,102283.31
2022-11-26T16:51:21.549Z,102282.05
2022-11-26T16:53:52.357Z,102281.15
2022-11-26T16:56:32.819Z,102279.81
2022-11-26T16:59:01.905Z,102281.20
2022-11-26T17:01:29.167Z,102282.74
2022-11-26T17:03:59.121Z,102285.73
2022-11-26T17:06:33.369Z,102286.23
2022-11-26T17:09:01.264Z,102294.64
2022-11-26T17:11:28.218Z,102290.69
2022-11-26T17:13:55.209Z,102295.65
2022-11-26T17:16:25.484Z,102295.07
2022-11-26T17:18:52.419Z,102291.13
2022-11-26T17:21:23.513Z,102298.02
2022-11-26T17:23:50.774Z,102302.65
2022-11-26T17:26:25.543Z,102303.35
2022-11-26T17:28:56.682Z,102300.54
2022-11-26T17:31:26.710Z,102303.84
2022-11-26T17:33:54.516Z,102303.67
2022-11-26T17:36:23.138Z,102309.77
2022-11-26T17:38:50.918Z,102314.88
2022-11-26T17:41:18.515Z,102313.41
2022-11-26T17:43:46.339Z,102317.73
2022-11-26T17:46:19.784Z,102314.70
2022-11-26T17:48:49.400Z,102308.34
2022-11-26T17:51:16.658Z,102309.17
2022-11-26T17:53:46.062Z,102310.24
2022-11-26T17:56:22.280Z,102311.74
2022-11-26T17:58:49.888Z,102315.22
2022-11-26T18:01:17.348Z,102315.50
2022-11-26T18:03:44.823Z,102315.89
2022-11-26T18:06:21.304Z,102314.39
2022-11-26T18:08:47.896Z,102317.48
2022-11-26T18:11:15.922Z,102317.95
2022-11-26T18:13:43.022Z,102321.62
2022-11-26T18:16:10.948Z,102320.25
2022-11-26T18:18:37.925Z,102320.18
2022-11-26T18:21:05.906Z,102312.96
2022-11-26T18:23:36.132Z,102317.29
2022-11-26T18:26:04.306Z,102324.41
2022-11-26T18:28:31.753Z,102322.68
2022-11-26T18:30:58.959Z,102320.10
2022-11-26T18:33:26.697Z,102322.62
2022-11-26T18:35:53.712Z,102322.48
2022-11-26T18:38:20.819Z,102323.39
2022-11-26T18:40:58.261Z,102319.98
2022-11-26T18:43:25.334Z,102321.26
2022-11-26T18:45:52.114Z,102317.55
2022-11-26T18:48:22.680Z,102318.59
2022-11-26T18:50:59.034Z,102316.14
2022-11-26T18:53:27.057Z,102320.43
2022-11-26T18:55:55.614Z,102322.35
2022-11-26T18:58:25.600Z,102322.14
2022-11-26T19:00:57.999Z,102325.88
2022-11-26T19:03:27.485Z,102331.17
2022-11-26T19:05:56.605Z,102329.29
2022-11-26T19:08:25.773Z,102329.89
2022-11-26T19:10:54.526Z,102324.99
2022-11-26T19:13:21.942Z,102323.81
2022-11-26T19:15:51.902Z,102333.44
2022-11-26T19:18:21.049Z,102334.00
2022-11-26T19:20:56.118Z,102337.43
2022-11-26T19:23:25.870Z,102342.52
2022-11-26T19:25:52.310Z,102344.95
2022-11-26T19:28:19.658Z,102348.62
2022-11-26T19:30:59.043Z,102348.44
2022-11-26T19:33:26.201Z,102347.31
2022-11-26T19:35:53.783Z,102351.17
2022-11-26T19:38:21.077Z,102352.45
2022-11-26T19:40:50.531Z,102353.36
2022-11-26T19:43:18.708Z,102357.17
2022-11-26T19:45:46.775Z,102358.00
2022-11-26T19:48:14.394Z,102358.66
2022-11-26T19:50:42.716Z,102363.84
2022-11-26T19:53:15.570Z,102365.58
2022-11-26T19:55:42.388Z,102366.80
2022-11-26T19:58:09.634Z,102366.10
2022-11-26T20:00:36.368Z,102367.31
2022-11-26T20:03:03.347Z,102363.36
2022-11-26T20:05:32.705Z,102361.67
2022-11-26T20:08:00.999Z,102358.62
2022-11-26T20:10:31.404Z,102358.77
2022-11-26T20:13:00.994Z,102359.84
2022-11-26T20:15:28.177Z,102364.83
2022-11-26T20:17:55.816Z,102366.72
2022-11-26T20:20:22.570Z,102368.11
2022-11-26T20:22:49.788Z,102369.70
2022-11-26T20:25:17.095Z,102370.08
2022-11-26T20:27:44.250Z,102370.61
2022-11-26T20:30:12.043Z,102366.56
2022-11-26T20:32:41.332Z,102368.00
2022-11-26T20:35:08.814Z,102374.04
2022-11-26T20:37:35.715Z,102375.70
2022-11-26T20:40:02.705Z,102374.52
2022-11-26T20:42:30.135Z,102379.02
2022-11-26T20:44:59.150Z,102378.07
2022-11-26T20:47:26.916Z,102379.52
2022-11-26T20:49:55.004Z,102376.63
2022-11-26T20:52:23.629Z,102376.79
2022-11-26T20:54:53.614Z,102379.27
2022-11-26T20:57:22.817Z,102379.53
2022-11-26T20:59:53.827Z,102378.60
2022-11-26T21:02:21.335Z,102379.32
2022-11-26T21:04:49.636Z,102380.62
2022-11-26T21:07:18.089Z,102383.48
2022-11-26T21:09:46.114Z,102384.09
2022-11-26T21:12:14.209Z,102381.80
2022-11-26T21:14:41.188Z,102383.90
2022-11-26T21:17:08.812Z,102383.19
2022-11-26T21:19:36.209Z,102384.17
2022-11-26T21:22:03.727Z,102383.23
2022-11-26T21:24:30.949Z,102377.89
2022-11-26T21:26:57.596Z,102377.75
2022-11-26T21:29:25.572Z,102377.23
2022-11-26T21:31:52.615Z,102374.75
2022-11-26T21:34:21.389Z,102373.36
2022-11-26T21:36:48.534Z,102371.02
2022-11-26T21:39:16.329Z,102383.58
2022-11-26T21:41:45.381Z,102385.11
2022-11-26T21:44:15.078Z,102383.48
2022-11-26T21:46:41.870Z,102382.52
2022-11-26T21:49:08.769Z,102386.84
2022-11-26T21:51:35.521Z,102382.33
2022-11-26T21:54:02.695Z,102387.49
2022-11-26T21:56:30.794Z,102387.36
2022-11-26T21:58:59.321Z,102388.71
2022-11-26T22:01:28.081Z,102386.02
2022-11-26T22:04:02.532Z,102388.17
2022-11-26T22:06:29.809Z,102384.95
2022-11-26T22:08:57.149Z,102388.85
2022-11-26T22:11:32.573Z,102391.18
2022-11-26T22:13:59.310Z,102389.95
2022-11-26T22:16:27.645Z,102392.33
2022-11-26T22:18:58.390Z,102392.79
2022-11-26T22:21:28.746Z,102387.95
2022-11-26T22:23:56.556Z,102389.19
2022-11-26T22:26:24.342Z,102383.58
2022-11-26T22:28:51.621Z,102383.41
2022-11-26T22:31:27.366Z,102378.38
2022-11-26T22:33:56.699Z,102372.64
2022-11-26T22:36:24.880Z,102371.63
2022-11-26T22:38:52.302Z,102369.72
2022-11-26T22:41:23.146Z,102369.30
2022-11-26T22:43:50.631Z,102372.05
2022-11-26T22:46:20.534Z,102367.96
2022-11-26T22:48:58.311Z,102367.62
2022-11-26T22:51:27.835Z,102366.84
2022-11-26T22:53:59.885Z,102365.31
2022-11-26T22:56:27.767Z,102365.63
2022-11-26T22:58:55.060Z,102363.96
2022-11-26T23:01:26.414Z,102360.42
2022-11-26T23:03:54.721Z,102356.71
2022-11-26T23:06:24.194Z,102355.73
2022-11-26T23:08:51.104Z,102363.38
2022-11-26T23:11:22.325Z,102358.98
2022-11-26T23:13:49.497Z,102353.98
2022-11-26T23:16:19.201Z,102347.81
2022-11-26T23:18:45.936Z,102354.33
2022-11-26T23:21:20.023Z,102355.00
2022-11-26T23:23:47.556Z,102351.65
2022-11-26T23:26:20.434Z,102352.81
2022-11-26T23:28:51.235Z,102356.05
2022-11-26T23:31:20.652Z,102359.16
2022-11-26T23:33:47.725Z,102358.52
2022-11-26T23:36:14.954Z,102355.61
2022-11-26T23:38:42.126Z,102355.88
2022-11-26T23:41:09.121Z,102350.80
2022-11-26T23:43:38.945Z,102350.39
2022-11-26T23:46:19.332Z,102352.20
2022-11-26T23:48:47.527Z,102352.29
2022-11-26T23:51:17.127Z,102349.23
2022-11-26T23:53:45.303Z,102348.69
2022-11-26T23:56:18.846Z,102354.47
2022-11-26T23:58:50.954Z,102354.26
